createdAt,value
2022-08-03T00:02:19.333Z,5.70
2022-08-03T00:04:46.916Z,5.23
2022-08-03T00:07:14.628Z,6.07
2022-08-03T00:09:42.289Z,5.70
2022-08-03T00:12:10.119Z,5.60
2022-08-03T00:14:37.887Z,5.80
2022-08-03T00:17:07.466Z,5.80
2022-08-03T00:19:35.119Z,5.40
2022-08-03T00:22:02.998Z,5.40
2022-08-03T00:24:31.305Z,5.77
2022-08-03T00:26:58.944Z,6.33
2022-08-03T00:29:26.606Z,6.77
2022-08-03T00:32:00.337Z,6.03
2022-08-03T00:34:57.195Z,8.20
2022-08-03T00:37:19.098Z,13.10
2022-08-03T00:39:48.081Z,7.57
2022-08-03T00:42:16.958Z,7.50
2022-08-03T00:44:45.515Z,9.93
2022-08-03T00:47:13.575Z,5.90
2022-08-03T00:49:42.967Z,6.90
2022-08-03T00:52:11.293Z,6.10
2022-08-03T00:54:39.948Z,6.17
2022-08-03T00:57:08.163Z,7.23
2022-08-03T00:59:36.937Z,7.23
2022-08-03T01:02:04.928Z,6.80
2022-08-03T01:04:32.455Z,6.83
2022-08-03T01:07:10.995Z,6.80
2022-08-03T01:09:42.038Z,7.47
2022-08-03T01:12:14.432Z,6.67
2022-08-03T01:14:45.262Z,7.10
2022-08-03T01:17:14.520Z,7.20
2022-08-03T01:19:45.171Z,6.77
2022-08-03T01:22:23.683Z,6.33
2022-08-03T01:24:56.868Z,6.20
2022-08-03T01:27:27.788Z,6.07
2022-08-03T01:30:01.365Z,5.50
2022-08-03T01:32:58.317Z,5.60
2022-08-03T01:35:23.457Z,5.87
2022-08-03T01:37:51.922Z,5.53
2022-08-03T01:40:21.718Z,5.40
2022-08-03T01:42:50.738Z,6.00
2022-08-03T01:45:20.698Z,5.60
2022-08-03T01:47:50.724Z,5.60
2022-08-03T01:50:20.334Z,5.63
2022-08-03T01:52:48.686Z,5.73
2022-08-03T01:55:18.289Z,5.73
2022-08-03T01:58:05.163Z,5.80
2022-08-03T02:00:37.305Z,6.03
2022-08-03T02:03:07.137Z,5.20
2022-08-03T02:05:35.352Z,5.67
2022-08-03T02:08:04.732Z,5.40
2022-08-03T02:10:35.407Z,5.13
2022-08-03T02:13:04.988Z,5.67
2022-08-03T02:15:34.557Z,5.27
2022-08-03T02:18:05.343Z,5.40
2022-08-03T02:20:36.251Z,5.10
2022-08-03T02:23:04.535Z,5.67
2022-08-03T02:25:33.193Z,5.30
2022-08-03T02:28:02.882Z,5.67
2022-08-03T02:30:32.163Z,5.37
2022-08-03T02:33:00.415Z,5.20
2022-08-03T02:35:30.466Z,5.30
2022-08-03T02:38:00.747Z,5.13
2022-08-03T02:40:29.547Z,5.30
2022-08-03T02:42:59.155Z,4.80
2022-08-03T02:45:28.847Z,5.20
2022-08-03T02:47:58.082Z,5.80
2022-08-03T02:50:27.718Z,5.73
2022-08-03T02:52:58.355Z,5.00
2022-08-03T02:55:27.252Z,5.93
2022-08-03T02:57:55.344Z,5.40
2022-08-03T03:00:28.330Z,5.60
2022-08-03T03:02:58.640Z,5.57
2022-08-03T03:05:55.110Z,5.60
2022-08-03T03:08:20.662Z,5.67
2022-08-03T03:10:53.182Z,5.90
2022-08-03T03:13:24.110Z,5.33
2022-08-03T03:15:53.074Z,5.47
2022-08-03T03:18:23.049Z,4.90
2022-08-03T03:20:52.730Z,5.20
2022-08-03T03:23:22.812Z,5.20
2022-08-03T03:25:51.133Z,6.30
2022-08-03T03:28:18.986Z,5.50
2022-08-03T03:30:52.903Z,5.77
2022-08-03T03:33:20.938Z,5.53
2022-08-03T03:35:48.915Z,5.20
2022-08-03T03:38:16.606Z,5.20
2022-08-03T03:40:45.717Z,5.50
2022-08-03T03:43:13.773Z,5.30
2022-08-03T03:45:42.696Z,5.63
2022-08-03T03:48:10.888Z,5.40
2022-08-03T03:50:40.808Z,5.90
2022-08-03T03:53:10.015Z,6.23
2022-08-03T03:56:01.576Z,6.20
2022-08-03T03:58:27.603Z,6.00
2022-08-03T04:00:55.471Z,5.50
2022-08-03T04:03:23.095Z,6.10
2022-08-03T04:06:08.353Z,5.90
2022-08-03T04:08:53.714Z,6.53
2022-08-03T04:11:30.205Z,6.10
2022-08-03T04:14:03.991Z,6.00
2022-08-03T04:16:33.384Z,6.67
2022-08-03T04:19:02.966Z,6.50
2022-08-03T04:21:31.607Z,6.43
2022-08-03T04:24:01.172Z,6.60
2022-08-03T04:26:31.616Z,7.13
2022-08-03T04:29:00.770Z,6.10
2022-08-03T04:31:30.790Z,6.40
2022-08-03T04:33:58.492Z,6.20
2022-08-03T04:36:31.399Z,6.73
2022-08-03T04:39:01.207Z,6.33
2022-08-03T04:41:29.573Z,6.33
2022-08-03T04:43:58.418Z,6.43
2022-08-03T04:46:28.140Z,6.17
2022-08-03T04:48:57.848Z,6.00
2022-08-03T04:51:25.810Z,5.97
2022-08-03T04:53:53.421Z,5.90
2022-08-03T04:56:21.129Z,6.43
2022-08-03T04:58:48.926Z,6.50
2022-08-03T05:01:16.850Z,6.33
2022-08-03T05:03:44.574Z,6.27
2022-08-03T05:06:13.811Z,5.10
2022-08-03T05:08:46.543Z,5.50
2022-08-03T05:11:15.296Z,5.90
2022-08-03T05:13:42.837Z,5.40
2022-08-03T05:16:11.820Z,5.20
2022-08-03T05:18:39.849Z,5.73
2022-08-03T05:21:07.573Z,5.30
2022-08-03T05:23:37.836Z,5.03
2022-08-03T05:26:05.744Z,5.20
2022-08-03T05:28:33.388Z,4.73
2022-08-03T05:31:01.130Z,4.50
2022-08-03T05:33:29.033Z,5.07
2022-08-03T05:36:03.237Z,4.70
2022-08-03T05:38:34.012Z,4.80
2022-08-03T05:41:21.187Z,4.90
2022-08-03T05:43:51.407Z,5.10
2022-08-03T05:46:19.143Z,4.33
2022-08-03T05:48:46.926Z,4.80
2022-08-03T05:51:14.947Z,4.93
2022-08-03T05:53:43.221Z,5.40
2022-08-03T05:56:13.786Z,4.53
2022-08-03T05:58:43.510Z,4.50
2022-08-03T06:01:11.124Z,4.37
2022-08-03T06:03:38.979Z,4.30
2022-08-03T06:06:07.035Z,4.43
2022-08-03T06:08:35.170Z,4.70
2022-08-03T06:11:03.063Z,4.60
2022-08-03T06:13:32.132Z,4.73
2022-08-03T06:15:59.991Z,4.70
2022-08-03T06:18:27.633Z,5.63
2022-08-03T06:20:55.691Z,4.33
2022-08-03T06:23:52.642Z,4.03
2022-08-03T06:26:13.559Z,4.63
2022-08-03T06:28:52.248Z,4.30
2022-08-03T06:31:22.898Z,3.80
2022-08-03T06:34:33.153Z,3.67
2022-08-03T06:36:38.328Z,3.70
2022-08-03T06:39:06.505Z,3.20
2022-08-03T06:41:37.270Z,3.47
2022-08-03T06:44:10.723Z,2.93
2022-08-03T06:46:38.561Z,2.87
2022-08-03T06:49:07.970Z,2.80
2022-08-03T06:52:06.062Z,3.47
2022-08-03T06:54:24.328Z,2.90
2022-08-03T06:56:52.057Z,2.90
2022-08-03T07:00:06.519Z,2.87
2022-08-03T07:02:10.031Z,2.97
2022-08-03T07:04:37.825Z,3.10
2022-08-03T07:07:05.447Z,3.40
2022-08-03T07:09:33.132Z,3.10
2022-08-03T07:12:02.569Z,2.50
2022-08-03T07:14:31.563Z,2.40
2022-08-03T07:16:59.483Z,2.63
2022-08-03T07:19:27.326Z,2.70
2022-08-03T07:21:54.891Z,2.60
2022-08-03T07:24:30.058Z,2.80
2022-08-03T07:26:57.628Z,2.73
2022-08-03T07:29:26.067Z,3.10
2022-08-03T07:31:55.122Z,2.30
2022-08-03T07:34:22.737Z,2.40
2022-08-03T07:36:50.333Z,2.23
2022-08-03T07:39:18.620Z,2.90
2022-08-03T07:41:46.567Z,3.70
2022-08-03T07:44:14.651Z,2.67
2022-08-03T07:46:42.545Z,2.70
2022-08-03T07:49:12.861Z,5.50
2022-08-03T07:51:40.631Z,2.30
2022-08-03T07:54:10.232Z,2.07
2022-08-03T07:56:38.071Z,2.70
2022-08-03T07:59:06.033Z,2.97
2022-08-03T08:01:36.774Z,2.30
2022-08-03T08:04:04.580Z,2.57
2022-08-03T08:06:33.615Z,2.50
2022-08-03T08:09:02.500Z,3.33
2022-08-03T08:11:30.088Z,2.30
2022-08-03T08:13:57.824Z,2.20
2022-08-03T08:16:25.589Z,2.53
2022-08-03T08:18:53.245Z,1.70
2022-08-03T08:21:20.978Z,2.33
2022-08-03T08:23:57.008Z,4.60
2022-08-03T08:26:27.067Z,2.50
2022-08-03T08:28:54.826Z,1.93
2022-08-03T08:31:22.696Z,3.07
2022-08-03T08:34:05.667Z,1.97
2022-08-03T08:36:34.122Z,2.40
2022-08-03T08:39:03.195Z,2.03
2022-08-03T08:41:33.975Z,2.43
2022-08-03T08:44:02.342Z,2.10
2022-08-03T08:46:31.608Z,2.10
2022-08-03T08:49:00.324Z,2.17
2022-08-03T08:51:59.391Z,3.17
2022-08-03T08:54:26.877Z,2.03
2022-08-03T08:56:56.549Z,2.40
2022-08-03T08:59:25.195Z,2.30
2022-08-03T09:01:57.892Z,2.10
2022-08-03T09:04:25.679Z,2.30
2022-08-03T09:07:17.743Z,2.40
2022-08-03T09:10:11.133Z,2.10
2022-08-03T09:12:42.023Z,3.20
2022-08-03T09:15:20.476Z,1.90
2022-08-03T09:17:51.065Z,2.10
2022-08-03T09:20:19.684Z,2.20
2022-08-03T09:22:54.904Z,1.83
2022-08-03T09:25:29.893Z,2.10
2022-08-03T09:28:05.384Z,1.73
2022-08-03T09:30:34.099Z,2.53
2022-08-03T09:33:03.212Z,2.20
2022-08-03T09:38:23.867Z,1.70
2022-08-03T09:40:58.866Z,2.07
2022-08-03T09:43:27.955Z,1.70
2022-08-03T09:46:03.959Z,2.10
2022-08-03T09:48:33.288Z,3.10
2022-08-03T09:51:21.150Z,3.00
2022-08-03T09:53:58.792Z,3.53
2022-08-03T09:56:39.813Z,1.90
2022-08-03T09:59:07.518Z,2.23
2022-08-03T10:01:35.602Z,1.60
2022-08-03T10:04:05.129Z,2.00
2022-08-03T10:06:33.254Z,3.33
2022-08-03T10:09:08.057Z,3.00
2022-08-03T10:11:40.779Z,1.60
2022-08-03T10:14:18.805Z,2.00
2022-08-03T10:16:47.247Z,2.40
2022-08-03T10:19:15.165Z,2.17
2022-08-03T10:21:44.013Z,1.70
2022-08-03T10:24:12.150Z,1.87
2022-08-03T10:26:49.780Z,1.80
2022-08-03T10:29:24.550Z,1.70
2022-08-03T10:31:57.732Z,2.30
2022-08-03T10:34:27.697Z,2.90
2022-08-03T10:36:57.444Z,2.90
2022-08-03T10:39:28.539Z,1.70
2022-08-03T10:41:58.214Z,1.70
2022-08-03T10:44:30.691Z,1.90
2022-08-03T10:46:58.477Z,2.13
2022-08-03T10:49:34.295Z,1.57
2022-08-03T10:52:09.674Z,2.50
2022-08-03T10:55:10.798Z,1.97
2022-08-03T10:57:50.158Z,2.33
2022-08-03T11:00:22.517Z,2.63
2022-08-03T11:03:09.612Z,2.90
2022-08-03T11:05:38.777Z,2.80
2022-08-03T11:08:21.658Z,2.20
2022-08-03T11:10:49.621Z,1.83
2022-08-03T11:13:18.345Z,2.20
2022-08-03T11:15:48.857Z,1.93
2022-08-03T11:18:16.625Z,2.60
2022-08-03T11:20:51.340Z,2.20
2022-08-03T11:23:20.138Z,2.30
2022-08-03T11:26:14.824Z,1.97
2022-08-03T11:28:43.695Z,2.10
2022-08-03T11:31:49.326Z,2.80
2022-08-03T11:34:19.472Z,1.63
2022-08-03T11:37:06.227Z,1.73
2022-08-03T11:39:43.606Z,2.10
2022-08-03T11:42:35.421Z,1.97
2022-08-03T11:45:07.864Z,2.10
2022-08-03T11:47:50.284Z,1.90
2022-08-03T11:50:21.378Z,2.00
2022-08-03T11:52:49.911Z,2.00
2022-08-03T11:55:20.312Z,2.00
2022-08-03T11:59:02.658Z,2.93
2022-08-03T12:00:36.789Z,3.70
2022-08-03T12:03:06.022Z,2.23
2022-08-03T12:08:31.289Z,1.70
2022-08-03T12:11:00.410Z,2.20
2022-08-03T12:14:45.023Z,2.10
2022-08-03T12:16:18.499Z,2.00
2022-08-03T12:18:46.527Z,2.00
2022-08-03T12:21:16.479Z,2.80
2022-08-03T12:23:44.379Z,2.10
2022-08-03T12:26:11.987Z,3.10
2022-08-03T12:28:49.733Z,2.60
2022-08-03T12:31:37.047Z,2.27
2022-08-03T12:34:07.090Z,6.43
2022-08-03T12:36:36.583Z,2.10
2022-08-03T12:39:05.748Z,2.00
2022-08-03T12:41:35.203Z,2.00
2022-08-03T12:44:04.062Z,1.70
2022-08-03T12:46:32.915Z,2.03
2022-08-03T12:49:03.286Z,2.70
2022-08-03T12:51:32.276Z,2.17
2022-08-03T12:54:01.859Z,1.73
2022-08-03T12:56:30.228Z,2.30
2022-08-03T12:58:57.971Z,7.67
2022-08-03T13:01:27.816Z,1.80
2022-08-03T13:03:56.200Z,2.87
2022-08-03T13:06:24.473Z,1.70
2022-08-03T13:09:02.563Z,1.50
2022-08-03T13:11:57.794Z,1.63
2022-08-03T13:14:19.998Z,2.87
2022-08-03T13:16:48.358Z,3.17
2022-08-03T13:19:16.262Z,2.20
2022-08-03T13:21:53.772Z,1.80
2022-08-03T13:24:32.245Z,2.23
2022-08-03T13:27:21.888Z,5.27
2022-08-03T13:29:50.225Z,2.23
2022-08-03T13:32:18.349Z,2.80
2022-08-03T13:34:45.967Z,2.10
2022-08-03T13:37:13.563Z,2.23
2022-08-03T13:39:57.763Z,2.73
2022-08-03T13:42:29.654Z,1.63
2022-08-03T13:44:57.653Z,1.77
2022-08-03T13:47:25.279Z,1.90
2022-08-03T13:49:59.744Z,1.70
2022-08-03T13:52:32.077Z,2.13
2022-08-03T13:55:01.309Z,2.13
2022-08-03T13:58:02.299Z,2.33
2022-08-03T14:00:26.455Z,2.83
2022-08-03T14:03:02.824Z,1.53
2022-08-03T14:05:32.732Z,1.93
2022-08-03T14:08:04.149Z,2.53
2022-08-03T14:10:33.923Z,2.20
2022-08-03T14:13:02.862Z,2.57
2022-08-03T14:15:30.729Z,1.80
2022-08-03T14:17:59.009Z,1.97
2022-08-03T14:20:38.960Z,1.60
2022-08-03T14:23:16.055Z,1.77
2022-08-03T14:25:51.948Z,2.30
2022-08-03T14:28:23.726Z,2.10
2022-08-03T14:30:52.115Z,2.00
2022-08-03T14:33:19.871Z,2.47
2022-08-03T14:35:48.178Z,2.27
2022-08-03T14:38:15.794Z,1.87
2022-08-03T14:40:43.627Z,1.83
2022-08-03T14:43:11.698Z,2.10
2022-08-03T14:45:41.155Z,2.00
2022-08-03T14:50:28.955Z,2.60
2022-08-03T14:50:57.204Z,1.93
2022-08-03T14:53:24.998Z,2.03
2022-08-03T14:55:53.440Z,1.80
2022-08-03T14:58:22.076Z,2.03
2022-08-03T15:00:52.367Z,2.10
2022-08-03T15:03:23.870Z,2.17
2022-08-03T15:05:52.830Z,1.90
2022-08-03T15:08:20.640Z,2.20
2022-08-03T15:10:49.237Z,1.80
2022-08-03T15:13:17.014Z,2.33
2022-08-03T15:15:44.727Z,2.93
2022-08-03T15:18:13.966Z,1.73
2022-08-03T15:20:46.378Z,2.20
2022-08-03T15:23:15.448Z,2.57
2022-08-03T15:26:32.121Z,2.20
2022-08-03T15:28:31.284Z,2.40
2022-08-03T15:30:59.008Z,2.00
2022-08-03T15:33:28.390Z,2.37
2022-08-03T15:35:57.150Z,2.00
2022-08-03T15:38:25.889Z,2.97
2022-08-03T15:40:55.224Z,1.87
2022-08-03T15:43:23.082Z,1.93
2022-08-03T15:46:19.055Z,2.20
2022-08-03T15:48:40.202Z,2.00
2022-08-03T15:51:08.437Z,2.27
2022-08-03T15:53:36.350Z,2.90
2022-08-03T15:56:09.854Z,2.43
2022-08-03T15:59:03.834Z,2.23
2022-08-03T16:01:28.849Z,3.43
2022-08-03T16:03:58.040Z,2.43
2022-08-03T16:06:29.846Z,2.13
2022-08-03T16:09:04.028Z,2.03
2022-08-03T16:11:31.889Z,2.40
2022-08-03T16:14:12.905Z,2.60
2022-08-03T16:16:47.160Z,3.10
2022-08-03T16:19:16.271Z,2.83
2022-08-03T16:21:48.138Z,2.60
2022-08-03T16:24:19.731Z,2.30
2022-08-03T16:26:52.766Z,2.50
2022-08-03T16:29:22.706Z,2.60
2022-08-03T16:31:52.265Z,3.00
2022-08-03T16:34:22.185Z,3.23
2022-08-03T16:36:49.854Z,2.77
2022-08-03T16:39:17.625Z,2.40
2022-08-03T16:41:53.748Z,4.10
2022-08-03T16:44:29.515Z,2.70
2022-08-03T16:46:58.060Z,2.87
2022-08-03T16:49:54.219Z,2.80
2022-08-03T16:52:16.426Z,3.53
2022-08-03T16:54:50.689Z,4.00
2022-08-03T16:57:56.494Z,3.40
2022-08-03T17:00:09.492Z,3.53
2022-08-03T17:02:37.311Z,2.53
2022-08-03T17:05:07.320Z,4.00
2022-08-03T17:07:36.062Z,3.17
2022-08-03T17:10:06.847Z,2.70
2022-08-03T17:12:34.936Z,3.00
2022-08-03T17:15:02.919Z,3.40
2022-08-03T17:17:37.610Z,3.10
2022-08-03T17:20:18.675Z,3.77
2022-08-03T17:22:48.543Z,3.60
2022-08-03T17:25:22.036Z,3.47
2022-08-03T17:28:50.617Z,3.33
2022-08-03T17:31:32.191Z,3.90
2022-08-03T17:34:00.701Z,3.50
2022-08-03T17:36:47.538Z,4.33
2022-08-03T17:39:27.024Z,5.20
2022-08-03T17:44:56.339Z,3.83
2022-08-03T17:47:29.216Z,3.80
2022-08-03T17:50:24.389Z,7.37
2022-08-03T17:52:59.258Z,3.50
2022-08-03T17:55:58.652Z,4.27
2022-08-03T17:58:21.004Z,6.70
2022-08-03T18:01:59.802Z,4.90
2022-08-03T18:03:59.416Z,3.87
2022-08-03T18:06:30.861Z,4.07
2022-08-03T18:09:05.164Z,5.00
2022-08-03T18:11:56.286Z,5.03
2022-08-03T18:14:30.629Z,7.33
2022-08-03T18:17:01.807Z,13.17
2022-08-03T18:20:01.072Z,5.03
2022-08-03T18:22:20.950Z,6.50
2022-08-03T18:24:51.034Z,8.07
2022-08-03T18:27:21.169Z,4.77
2022-08-03T18:29:49.624Z,13.90
2022-08-03T18:32:17.482Z,6.33
2022-08-03T18:34:53.714Z,7.50
2022-08-03T18:37:25.275Z,9.97
2022-08-03T18:39:57.902Z,6.53
2022-08-03T18:42:26.971Z,6.53
2022-08-03T18:44:56.206Z,5.93
2022-08-03T18:47:51.531Z,7.13
2022-08-03T18:50:25.570Z,6.60
2022-08-03T18:52:58.366Z,7.10
2022-08-03T18:55:33.009Z,5.87
2022-08-03T18:58:06.729Z,6.40
2022-08-03T19:00:54.156Z,7.40
2022-08-03T19:03:24.495Z,9.30
2022-08-03T19:06:02.330Z,9.80
2022-08-03T19:08:38.193Z,11.50
2022-08-03T19:11:09.297Z,10.40
2022-08-03T19:13:44.416Z,10.80
2022-08-03T19:16:22.071Z,10.53
2022-08-03T19:18:50.967Z,11.30
2022-08-03T19:21:19.949Z,11.23
2022-08-03T19:23:50.727Z,10.00
2022-08-03T19:26:31.158Z,14.40
2022-08-03T19:28:59.888Z,12.23
2022-08-03T19:31:30.964Z,9.90
2022-08-03T19:34:03.532Z,11.43
2022-08-03T19:36:34.897Z,12.40
2022-08-03T19:39:09.208Z,10.30
2022-08-03T19:41:42.295Z,14.50
2022-08-03T19:44:11.439Z,11.30
2022-08-03T19:46:42.164Z,5.90
2022-08-03T19:49:14.999Z,10.50
2022-08-03T19:52:01.893Z,17.10
2022-08-03T19:54:35.855Z,17.57
2022-08-03T19:57:05.685Z,17.00
2022-08-03T19:59:49.605Z,19.43
2022-08-03T20:02:26.526Z,20.60
2022-08-03T20:04:56.281Z,18.80
2022-08-03T20:07:24.210Z,25.67
2022-08-03T20:09:54.717Z,27.43
2022-08-03T20:12:43.585Z,27.77
2022-08-03T20:15:11.347Z,33.13
2022-08-03T20:17:57.103Z,34.03
2022-08-03T20:20:27.803Z,25.50
2022-08-03T20:22:57.773Z,22.53
2022-08-03T20:25:37.983Z,52.83
2022-08-03T20:28:13.881Z,151.40
2022-08-03T20:30:43.324Z,61.17
2022-08-03T20:33:11.811Z,42.73
2022-08-03T20:35:48.947Z,26.40
2022-08-03T20:38:18.535Z,41.60
2022-08-03T20:40:46.569Z,33.57
2022-08-03T20:43:15.888Z,31.87
2022-08-03T20:46:00.945Z,26.93
2022-08-03T20:48:33.166Z,40.03
2022-08-03T20:51:01.165Z,25.83
2022-08-03T20:53:56.801Z,24.03
2022-08-03T20:56:17.243Z,28.50
2022-08-03T20:58:50.709Z,29.90
2022-08-03T21:01:27.907Z,27.33
2022-08-03T21:04:09.311Z,31.80
2022-08-03T21:06:41.152Z,24.03
2022-08-03T21:09:17.298Z,26.47
2022-08-03T21:11:48.699Z,27.43
2022-08-03T21:12:54.738Z,5.03
2022-08-03T21:14:21.067Z,30.27
2022-08-03T21:16:50.513Z,46.10
2022-08-03T21:19:18.933Z,28.67
2022-08-03T21:21:47.586Z,27.27
2022-08-03T21:24:16.038Z,51.30
2022-08-03T21:26:43.785Z,33.03
2022-08-03T21:29:14.318Z,31.23
2022-08-03T21:31:44.260Z,25.67
2022-08-03T21:34:12.319Z,25.07
2022-08-03T21:36:39.915Z,31.83
2022-08-03T21:39:08.855Z,16.93
2022-08-03T21:41:37.534Z,16.50
2022-08-03T21:44:05.687Z,16.47
2022-08-03T21:46:35.296Z,19.13
2022-08-03T21:50:07.970Z,18.07
2022-08-03T21:51:55.201Z,18.10
2022-08-03T21:54:23.739Z,11.77
2022-08-03T21:56:52.033Z,13.93
2022-08-03T21:59:20.930Z,13.30
2022-08-03T22:01:51.518Z,15.27
2022-08-03T22:04:55.008Z,15.60
2022-08-03T22:07:12.974Z,12.07
2022-08-03T22:09:40.758Z,13.80
2022-08-03T22:12:21.429Z,10.23
2022-08-03T22:14:49.776Z,12.30
2022-08-03T22:17:55.541Z,13.90
2022-08-03T22:20:18.097Z,17.70
2022-08-03T22:22:55.201Z,18.63
2022-08-03T22:25:27.342Z,15.73
2022-08-03T22:27:55.333Z,21.90
2022-08-03T22:30:23.095Z,16.00
2022-08-03T22:32:52.215Z,18.27
2022-08-03T22:35:22.299Z,20.10
2022-08-03T22:37:50.434Z,20.37
2022-08-03T22:40:20.820Z,14.03
2022-08-03T22:42:52.182Z,13.10
2022-08-03T22:45:45.801Z,17.83
2022-08-03T22:48:08.857Z,26.93
2022-08-03T22:50:38.292Z,17.90
2022-08-03T22:53:07.542Z,12.50
2022-08-03T22:55:35.446Z,13.47
2022-08-03T22:58:03.545Z,11.07
2022-08-03T23:00:31.259Z,8.17
2022-08-03T23:02:59.915Z,13.27
2022-08-03T23:06:01.154Z,10.10
2022-08-03T23:08:21.554Z,11.23
2022-08-03T23:10:49.715Z,7.47
2022-08-03T23:13:18.225Z,9.07
2022-08-03T23:15:51.555Z,11.20
2022-08-03T23:18:22.881Z,7.20
2022-08-03T23:20:51.274Z,9.50
2022-08-03T23:23:20.945Z,8.60
2022-08-03T23:25:50.804Z,6.57
2022-08-03T23:28:19.384Z,9.73
2022-08-03T23:30:47.541Z,13.20
2022-08-03T23:33:15.908Z,13.83
2022-08-03T23:36:28.568Z,12.10
2022-08-03T23:38:48.095Z,5.87
2022-08-03T23:41:15.831Z,12.73
2022-08-03T23:43:53.706Z,8.60
2022-08-03T23:46:22.724Z,11.10
2022-08-03T23:48:51.458Z,8.37
2022-08-03T23:51:28.707Z,8.63
2022-08-03T23:54:02.296Z,8.40
2022-08-03T23:56:36.154Z,7.50
2022-08-03T23:59:07.820Z,9.40
